リオデジャネイロ/サントス・デュモン の空港の天気 - METARとTAF

サントス・デュモン空港 ( SBRJ / SDU ) - ブラジル リオデジャネイロ州リオデジャネイロ市
飛行場実況気象(Metar)
観測時間06/14 19:00 BRT (06/14 22:00 UTC)
風向・風速南東 4m/s
視程10km以上
天気現象
全天の4割程度の雲 雲底高度 1220m
気温21℃
湿度73%
気圧1020hPa
METARSBRJ 142200Z 13007KT 9999 SCT040 21/16 Q1020
過去の天気等 Google飛行場航空写真 Wunderground天気予報

過去48時間のMETAR

飛行場予報(TAF)
発表時間: 6/14 12:00 BRT (6/14 15:00 UTC)
予報対象時間: 14日15時 BRT ~ 15日3時 BRT
風向・風速南西 3m/s
視程10km以上
全天の4割程度の雲 雲底高度 760m
全天の8割程度の雲 雲底高度 1220m
14日21時 BRT ~ 14日23時 BRT に徐々に
風向・風速東北東 3m/s
少しの雲 雲底高度 610m
TAF SBRJ 141500Z 1418/1506 23005KT 9999 SCT025 BKN040 TX22/1419Z TN17/1506Z
BECMG 1500/1502 07005KT FEW020 RMK PGY